sensor_id;sensor_type;location;lat;lon;timestamp;P1;durP1;ratioP1;P2;durP2;ratioP2
13222;SDS011;6676;45.192;5.722;2023-04-29T00:02:54;5.67;;;2.33;;
13222;SDS011;6676;45.192;5.722;2023-04-29T00:05:46;3.95;;;2.33;;
13222;SDS011;6676;45.192;5.722;2023-04-29T00:08:38;3.45;;;2.05;;
13222;SDS011;6676;45.192;5.722;2023-04-29T00:11:29;2.98;;;2.20;;
13222;SDS011;6676;45.192;5.722;2023-04-29T00:14:21;4.17;;;2.08;;
13222;SDS011;6676;45.192;5.722;2023-04-29T00:17:12;6.47;;;2.00;;
13222;SDS011;6676;45.192;5.722;2023-04-29T00:20:06;2.40;;;2.02;;
13222;SDS011;6676;45.192;5.722;2023-04-29T00:22:59;4.45;;;2.17;;
13222;SDS011;6676;45.192;5.722;2023-04-29T00:28:30;3.65;;;2.27;;
13222;SDS011;6676;45.192;5.722;2023-04-29T00:31:21;4.28;;;2.00;;
13222;SDS011;6676;45.192;5.722;2023-04-29T00:34:12;3.98;;;1.87;;
13222;SDS011;6676;45.192;5.722;2023-04-29T00:37:03;2.67;;;1.82;;
13222;SDS011;6676;45.192;5.722;2023-04-29T00:39:55;2.92;;;1.50;;
13222;SDS011;6676;45.192;5.722;2023-04-29T00:42:46;2.40;;;1.40;;
13222;SDS011;6676;45.192;5.722;2023-04-29T00:45:38;4.40;;;1.52;;
13222;SDS011;6676;45.192;5.722;2023-04-29T00:48:30;3.15;;;1.10;;
13222;SDS011;6676;45.192;5.722;2023-04-29T00:51:21;2.62;;;1.12;;
13222;SDS011;6676;45.192;5.722;2023-04-29T00:54:13;2.55;;;1.25;;
13222;SDS011;6676;45.192;5.722;2023-04-29T00:57:06;3.08;;;1.12;;
13222;SDS011;6676;45.192;5.722;2023-04-29T01:02:36;1.60;;;1.30;;
13222;SDS011;6676;45.192;5.722;2023-04-29T01:05:28;1.90;;;1.10;;
13222;SDS011;6676;45.192;5.722;2023-04-29T01:08:22;1.80;;;1.50;;
13222;SDS011;6676;45.192;5.722;2023-04-29T01:11:04;2.17;;;1.40;;
13222;SDS011;6676;45.192;5.722;2023-04-29T01:13:57;3.83;;;2.08;;
13222;SDS011;6676;45.192;5.722;2023-04-29T01:16:51;3.72;;;2.10;;
13222;SDS011;6676;45.192;5.722;2023-04-29T01:19:46;4.08;;;1.92;;
13222;SDS011;6676;45.192;5.722;2023-04-29T01:25:20;2.30;;;1.55;;
13222;SDS011;6676;45.192;5.722;2023-04-29T01:28:28;3.37;;;1.65;;
13222;SDS011;6676;45.192;5.722;2023-04-29T01:31:29;2.60;;;1.92;;
13222;SDS011;6676;45.192;5.722;2023-04-29T01:34:21;2.83;;;2.20;;
13222;SDS011;6676;45.192;5.722;2023-04-29T01:37:17;3.33;;;2.02;;
13222;SDS011;6676;45.192;5.722;2023-04-29T01:40:14;4.12;;;1.90;;
13222;SDS011;6676;45.192;5.722;2023-04-29T01:45:51;4.47;;;2.12;;
13222;SDS011;6676;45.192;5.722;2023-04-29T01:48:45;2.77;;;2.20;;
13222;SDS011;6676;45.192;5.722;2023-04-29T01:51:36;3.65;;;2.12;;
13222;SDS011;6676;45.192;5.722;2023-04-29T01:54:28;4.33;;;2.20;;
13222;SDS011;6676;45.192;5.722;2023-04-29T01:57:19;4.15;;;2.37;;
13222;SDS011;6676;45.192;5.722;2023-04-29T02:02:51;6.37;;;2.40;;
13222;SDS011;6676;45.192;5.722;2023-04-29T02:05:50;2.12;;;1.72;;
13222;SDS011;6676;45.192;5.722;2023-04-29T02:08:41;3.35;;;1.85;;
13222;SDS011;6676;45.192;5.722;2023-04-29T02:11:33;2.10;;;1.85;;
13222;SDS011;6676;45.192;5.722;2023-04-29T02:14:24;4.62;;;2.00;;
13222;SDS011;6676;45.192;5.722;2023-04-29T02:17:05;4.28;;;2.00;;
13222;SDS011;6676;45.192;5.722;2023-04-29T02:22:40;4.25;;;2.10;;
13222;SDS011;6676;45.192;5.722;2023-04-29T02:28:09;5.33;;;2.08;;
13222;SDS011;6676;45.192;5.722;2023-04-29T02:33:41;2.87;;;1.67;;
13222;SDS011;6676;45.192;5.722;2023-04-29T02:36:32;3.08;;;1.82;;
13222;SDS011;6676;45.192;5.722;2023-04-29T02:39:24;3.98;;;2.10;;
13222;SDS011;6676;45.192;5.722;2023-04-29T02:42:15;3.40;;;2.15;;
13222;SDS011;6676;45.192;5.722;2023-04-29T02:47:47;2.22;;;2.00;;
13222;SDS011;6676;45.192;5.722;2023-04-29T02:50:38;3.52;;;1.70;;
13222;SDS011;6676;45.192;5.722;2023-04-29T02:53:30;3.65;;;2.40;;
13222;SDS011;6676;45.192;5.722;2023-04-29T02:59:01;2.25;;;1.70;;
13222;SDS011;6676;45.192;5.722;2023-04-29T03:01:52;3.30;;;2.20;;
13222;SDS011;6676;45.192;5.722;2023-04-29T03:04:43;3.02;;;1.85;;
13222;SDS011;6676;45.192;5.722;2023-04-29T03:07:34;3.12;;;1.90;;
13222;SDS011;6676;45.192;5.722;2023-04-29T03:13:05;4.08;;;1.57;;
13222;SDS011;6676;45.192;5.722;2023-04-29T03:15:57;2.37;;;1.22;;
13222;SDS011;6676;45.192;5.722;2023-04-29T03:18:48;1.40;;;0.88;;
13222;SDS011;6676;45.192;5.722;2023-04-29T03:21:40;3.20;;;1.32;;
13222;SDS011;6676;45.192;5.722;2023-04-29T03:24:32;2.70;;;1.27;;
13222;SDS011;6676;45.192;5.722;2023-04-29T03:27:24;0.50;;;0.50;;
13222;SDS011;6676;45.192;5.722;2023-04-29T03:32:54;0.90;;;0.68;;
13222;SDS011;6676;45.192;5.722;2023-04-29T03:38:24;2.35;;;0.90;;
13222;SDS011;6676;45.192;5.722;2023-04-29T03:41:16;2.95;;;1.00;;
13222;SDS011;6676;45.192;5.722;2023-04-29T03:44:07;2.62;;;1.22;;
13222;SDS011;6676;45.192;5.722;2023-04-29T03:49:37;4.45;;;1.05;;
13222;SDS011;6676;45.192;5.722;2023-04-29T03:52:28;4.50;;;1.10;;
13222;SDS011;6676;45.192;5.722;2023-04-29T03:58:00;3.40;;;1.10;;
13222;SDS011;6676;45.192;5.722;2023-04-29T04:00:52;3.00;;;0.80;;
13222;SDS011;6676;45.192;5.722;2023-04-29T04:03:33;5.37;;;1.17;;
13222;SDS011;6676;45.192;5.722;2023-04-29T04:06:25;2.52;;;1.40;;
13222;SDS011;6676;45.192;5.722;2023-04-29T04:09:17;3.05;;;1.20;;
13222;SDS011;6676;45.192;5.722;2023-04-29T04:12:11;4.25;;;0.93;;
13222;SDS011;6676;45.192;5.722;2023-04-29T04:15:04;4.40;;;1.20;;
13222;SDS011;6676;45.192;5.722;2023-04-29T04:17:45;1.45;;;0.78;;
13222;SDS011;6676;45.192;5.722;2023-04-29T04:23:17;2.35;;;1.00;;
13222;SDS011;6676;45.192;5.722;2023-04-29T04:28:46;1.72;;;0.98;;
13222;SDS011;6676;45.192;5.722;2023-04-29T04:31:45;1.45;;;0.85;;
13222;SDS011;6676;45.192;5.722;2023-04-29T04:34:37;2.35;;;1.12;;
13222;SDS011;6676;45.192;5.722;2023-04-29T04:37:29;1.82;;;0.90;;
13222;SDS011;6676;45.192;5.722;2023-04-29T04:43:00;4.53;;;1.62;;
13222;SDS011;6676;45.192;5.722;2023-04-29T04:45:52;2.15;;;1.10;;
13222;SDS011;6676;45.192;5.722;2023-04-29T04:51:22;1.87;;;1.10;;
13222;SDS011;6676;45.192;5.722;2023-04-29T04:54:15;1.22;;;0.90;;
13222;SDS011;6676;45.192;5.722;2023-04-29T04:57:08;1.98;;;1.17;;
13222;SDS011;6676;45.192;5.722;2023-04-29T05:02:39;5.85;;;1.42;;
13222;SDS011;6676;45.192;5.722;2023-04-29T05:08:10;2.50;;;1.30;;
13222;SDS011;6676;45.192;5.722;2023-04-29T05:11:03;3.62;;;1.40;;
13222;SDS011;6676;45.192;5.722;2023-04-29T05:13:55;1.75;;;1.27;;
13222;SDS011;6676;45.192;5.722;2023-04-29T05:16:47;4.67;;;1.60;;
13222;SDS011;6676;45.192;5.722;2023-04-29T05:19:40;3.47;;;1.22;;
13222;SDS011;6676;45.192;5.722;2023-04-29T05:22:32;2.27;;;1.40;;
13222;SDS011;6676;45.192;5.722;2023-04-29T05:28:03;2.50;;;1.40;;
13222;SDS011;6676;45.192;5.722;2023-04-29T05:30:57;2.55;;;1.40;;
13222;SDS011;6676;45.192;5.722;2023-04-29T05:33:50;4.05;;;1.42;;
13222;SDS011;6676;45.192;5.722;2023-04-29T05:36:42;3.15;;;1.60;;
13222;SDS011;6676;45.192;5.722;2023-04-29T05:39:34;4.05;;;1.30;;
13222;SDS011;6676;45.192;5.722;2023-04-29T05:42:27;2.00;;;1.40;;
13222;SDS011;6676;45.192;5.722;2023-04-29T05:48:02;3.37;;;1.30;;
13222;SDS011;6676;45.192;5.722;2023-04-29T05:50:54;3.35;;;1.25;;
13222;SDS011;6676;45.192;5.722;2023-04-29T05:53:35;3.75;;;1.67;;
13222;SDS011;6676;45.192;5.722;2023-04-29T05:59:06;2.02;;;1.60;;
13222;SDS011;6676;45.192;5.722;2023-04-29T06:04:37;4.00;;;1.90;;
13222;SDS011;6676;45.192;5.722;2023-04-29T06:07:31;3.22;;;1.30;;
13222;SDS011;6676;45.192;5.722;2023-04-29T06:13:02;6.40;;;1.85;;
13222;SDS011;6676;45.192;5.722;2023-04-29T06:18:33;2.75;;;2.15;;
13222;SDS011;6676;45.192;5.722;2023-04-29T06:21:25;2.60;;;1.82;;
13222;SDS011;6676;45.192;5.722;2023-04-29T06:24:16;3.95;;;2.40;;
13222;SDS011;6676;45.192;5.722;2023-04-29T06:32:30;6.25;;;3.15;;
13222;SDS011;6676;45.192;5.722;2023-04-29T06:38:00;3.67;;;2.45;;
13222;SDS011;6676;45.192;5.722;2023-04-29T06:43:48;6.65;;;2.30;;
13222;SDS011;6676;45.192;5.722;2023-04-29T06:49:40;5.87;;;2.90;;
13222;SDS011;6676;45.192;5.722;2023-04-29T06:52:32;11.20;;;3.00;;
13222;SDS011;6676;45.192;5.722;2023-04-29T06:58:02;3.65;;;2.17;;
13222;SDS011;6676;45.192;5.722;2023-04-29T07:00:53;2.72;;;2.10;;
13222;SDS011;6676;45.192;5.722;2023-04-29T07:03:45;4.03;;;2.33;;
13222;SDS011;6676;45.192;5.722;2023-04-29T07:09:22;2.60;;;1.70;;
13222;SDS011;6676;45.192;5.722;2023-04-29T07:12:15;4.10;;;1.50;;
13222;SDS011;6676;45.192;5.722;2023-04-29T07:15:07;2.60;;;1.62;;
13222;SDS011;6676;45.192;5.722;2023-04-29T07:17:53;3.22;;;1.67;;
13222;SDS011;6676;45.192;5.722;2023-04-29T07:23:24;3.33;;;1.50;;
13222;SDS011;6676;45.192;5.722;2023-04-29T07:28:55;3.17;;;1.72;;
13222;SDS011;6676;45.192;5.722;2023-04-29T07:31:46;3.55;;;1.60;;
13222;SDS011;6676;45.192;5.722;2023-04-29T07:34:38;2.90;;;1.52;;
13222;SDS011;6676;45.192;5.722;2023-04-29T07:37:29;2.70;;;1.75;;
13222;SDS011;6676;45.192;5.722;2023-04-29T07:43:00;3.10;;;1.57;;
13222;SDS011;6676;45.192;5.722;2023-04-29T07:45:53;3.72;;;1.85;;
13222;SDS011;6676;45.192;5.722;2023-04-29T07:48:45;2.62;;;1.52;;
13222;SDS011;6676;45.192;5.722;2023-04-29T07:51:37;2.55;;;1.42;;
13222;SDS011;6676;45.192;5.722;2023-04-29T07:54:31;4.05;;;1.82;;
13222;SDS011;6676;45.192;5.722;2023-04-29T07:57:22;2.33;;;1.70;;
13222;SDS011;6676;45.192;5.722;2023-04-29T08:02:54;3.10;;;1.75;;
13222;SDS011;6676;45.192;5.722;2023-04-29T08:08:29;3.33;;;2.25;;
13222;SDS011;6676;45.192;5.722;2023-04-29T08:11:20;2.35;;;1.70;;
13222;SDS011;6676;45.192;5.722;2023-04-29T08:14:01;3.08;;;2.45;;
13222;SDS011;6676;45.192;5.722;2023-04-29T08:16:54;3.20;;;2.05;;
13222;SDS011;6676;45.192;5.722;2023-04-29T08:19:45;2.75;;;2.08;;
13222;SDS011;6676;45.192;5.722;2023-04-29T08:22:38;2.72;;;1.95;;
13222;SDS011;6676;45.192;5.722;2023-04-29T08:25:30;3.10;;;2.10;;
13222;SDS011;6676;45.192;5.722;2023-04-29T08:28:24;2.50;;;2.20;;
13222;SDS011;6676;45.192;5.722;2023-04-29T08:31:16;4.60;;;2.83;;
13222;SDS011;6676;45.192;5.722;2023-04-29T08:34:08;3.52;;;2.72;;
13222;SDS011;6676;45.192;5.722;2023-04-29T08:36:59;4.17;;;3.20;;
13222;SDS011;6676;45.192;5.722;2023-04-29T08:39:39;3.45;;;3.12;;
13222;SDS011;6676;45.192;5.722;2023-04-29T08:42:32;3.90;;;3.52;;
13222;SDS011;6676;45.192;5.722;2023-04-29T08:48:10;4.03;;;3.27;;
13222;SDS011;6676;45.192;5.722;2023-04-29T08:51:02;3.65;;;3.35;;
13222;SDS011;6676;45.192;5.722;2023-04-29T08:53:54;6.03;;;4.15;;
13222;SDS011;6676;45.192;5.722;2023-04-29T08:59:24;6.03;;;3.92;;
13222;SDS011;6676;45.192;5.722;2023-04-29T09:02:17;4.90;;;4.35;;
13222;SDS011;6676;45.192;5.722;2023-04-29T09:05:10;4.20;;;3.80;;
13222;SDS011;6676;45.192;5.722;2023-04-29T09:08:02;4.78;;;4.03;;
13222;SDS011;6676;45.192;5.722;2023-04-29T09:13:38;4.33;;;3.00;;
13222;SDS011;6676;45.192;5.722;2023-04-29T09:16:29;4.78;;;3.10;;
13222;SDS011;6676;45.192;5.722;2023-04-29T09:22:09;3.30;;;2.85;;
13222;SDS011;6676;45.192;5.722;2023-04-29T09:25:11;2.98;;;2.37;;
13222;SDS011;6676;45.192;5.722;2023-04-29T09:27:51;3.70;;;3.10;;
13222;SDS011;6676;45.192;5.722;2023-04-29T09:33:24;3.27;;;2.55;;
13222;SDS011;6676;45.192;5.722;2023-04-29T09:39:24;5.00;;;2.87;;
13222;SDS011;6676;45.192;5.722;2023-04-29T09:42:15;2.83;;;2.62;;
13222;SDS011;6676;45.192;5.722;2023-04-29T09:47:47;6.22;;;2.75;;
13222;SDS011;6676;45.192;5.722;2023-04-29T09:50:59;3.80;;;2.52;;
13222;SDS011;6676;45.192;5.722;2023-04-29T09:53:39;2.42;;;2.15;;
13222;SDS011;6676;45.192;5.722;2023-04-29T09:59:11;4.72;;;2.10;;
13222;SDS011;6676;45.192;5.722;2023-04-29T10:02:11;3.60;;;2.33;;
13222;SDS011;6676;45.192;5.722;2023-04-29T10:04:58;4.03;;;2.25;;
13222;SDS011;6676;45.192;5.722;2023-04-29T10:07:38;2.52;;;2.02;;
13222;SDS011;6676;45.192;5.722;2023-04-29T10:13:08;3.10;;;2.20;;
13222;SDS011;6676;45.192;5.722;2023-04-29T10:18:39;3.60;;;1.70;;
13222;SDS011;6676;45.192;5.722;2023-04-29T10:21:32;2.72;;;1.70;;
13222;SDS011;6676;45.192;5.722;2023-04-29T10:24:24;2.92;;;1.37;;
13222;SDS011;6676;45.192;5.722;2023-04-29T10:27:16;2.22;;;1.40;;
13222;SDS011;6676;45.192;5.722;2023-04-29T10:32:53;3.25;;;1.60;;
13222;SDS011;6676;45.192;5.722;2023-04-29T10:35:49;1.82;;;1.55;;
13222;SDS011;6676;45.192;5.722;2023-04-29T10:38:42;3.30;;;1.90;;
13222;SDS011;6676;45.192;5.722;2023-04-29T10:41:41;4.55;;;1.85;;
13222;SDS011;6676;45.192;5.722;2023-04-29T10:44:34;2.55;;;1.87;;
13222;SDS011;6676;45.192;5.722;2023-04-29T10:47:34;3.95;;;1.52;;
13222;SDS011;6676;45.192;5.722;2023-04-29T10:50:27;1.87;;;1.40;;
13222;SDS011;6676;45.192;5.722;2023-04-29T10:53:19;1.60;;;1.15;;
13222;SDS011;6676;45.192;5.722;2023-04-29T10:58:49;1.77;;;1.15;;
13222;SDS011;6676;45.192;5.722;2023-04-29T11:01:41;0.93;;;0.70;;
13222;SDS011;6676;45.192;5.722;2023-04-29T11:04:34;1.35;;;0.50;;
13222;SDS011;6676;45.192;5.722;2023-04-29T11:07:27;0.60;;;0.50;;
13222;SDS011;6676;45.192;5.722;2023-04-29T11:19:04;2.47;;;1.15;;
13222;SDS011;6676;45.192;5.722;2023-04-29T11:22:10;1.37;;;1.02;;
13222;SDS011;6676;45.192;5.722;2023-04-29T11:25:04;2.15;;;1.67;;
13222;SDS011;6676;45.192;5.722;2023-04-29T11:30:36;2.42;;;1.72;;
13222;SDS011;6676;45.192;5.722;2023-04-29T11:33:30;2.12;;;1.20;;
13222;SDS011;6676;45.192;5.722;2023-04-29T11:36:10;2.67;;;0.60;;
13222;SDS011;6676;45.192;5.722;2023-04-29T11:39:02;1.32;;;0.85;;
13222;SDS011;6676;45.192;5.722;2023-04-29T11:42:02;1.20;;;0.90;;
13222;SDS011;6676;45.192;5.722;2023-04-29T11:44:54;6.12;;;1.90;;
13222;SDS011;6676;45.192;5.722;2023-04-29T11:50:27;2.08;;;1.80;;
13222;SDS011;6676;45.192;5.722;2023-04-29T11:53:08;2.20;;;1.70;;
13222;SDS011;6676;45.192;5.722;2023-04-29T11:56:00;2.20;;;1.90;;
13222;SDS011;6676;45.192;5.722;2023-04-29T11:58:53;2.67;;;1.80;;
13222;SDS011;6676;45.192;5.722;2023-04-29T12:01:45;2.72;;;2.20;;
13222;SDS011;6676;45.192;5.722;2023-04-29T12:04:44;1.25;;;1.15;;
13222;SDS011;6676;45.192;5.722;2023-04-29T12:07:35;2.95;;;1.20;;
13222;SDS011;6676;45.192;5.722;2023-04-29T12:10:28;2.15;;;1.60;;
13222;SDS011;6676;45.192;5.722;2023-04-29T12:16:06;2.63;;;1.40;;
13222;SDS011;6676;45.192;5.722;2023-04-29T12:18:58;3.33;;;2.10;;
13222;SDS011;6676;45.192;5.722;2023-04-29T12:21:50;1.45;;;0.90;;
13222;SDS011;6676;45.192;5.722;2023-04-29T12:24:41;1.30;;;0.88;;
13222;SDS011;6676;45.192;5.722;2023-04-29T12:27:33;2.17;;;1.00;;
13222;SDS011;6676;45.192;5.722;2023-04-29T12:30:25;0.70;;;0.70;;
13222;SDS011;6676;45.192;5.722;2023-04-29T12:33:18;2.20;;;0.80;;
13222;SDS011;6676;45.192;5.722;2023-04-29T12:36:15;1.05;;;0.60;;
13222;SDS011;6676;45.192;5.722;2023-04-29T12:39:10;0.70;;;0.70;;
13222;SDS011;6676;45.192;5.722;2023-04-29T12:42:03;0.90;;;0.78;;
13222;SDS011;6676;45.192;5.722;2023-04-29T12:44:54;0.70;;;0.70;;
13222;SDS011;6676;45.192;5.722;2023-04-29T12:47:46;1.40;;;0.90;;
13222;SDS011;6676;45.192;5.722;2023-04-29T12:50:39;0.85;;;0.68;;
13222;SDS011;6676;45.192;5.722;2023-04-29T12:53:31;1.40;;;0.90;;
13222;SDS011;6676;45.192;5.722;2023-04-29T12:56:23;1.75;;;1.10;;
13222;SDS011;6676;45.192;5.722;2023-04-29T12:59:14;1.52;;;1.07;;
13222;SDS011;6676;45.192;5.722;2023-04-29T13:02:06;2.22;;;1.05;;
13222;SDS011;6676;45.192;5.722;2023-04-29T13:04:57;1.02;;;0.72;;
13222;SDS011;6676;45.192;5.722;2023-04-29T13:07:49;1.10;;;1.00;;
13222;SDS011;6676;45.192;5.722;2023-04-29T13:10:40;0.70;;;0.70;;
13222;SDS011;6676;45.192;5.722;2023-04-29T13:13:31;1.85;;;1.00;;
13222;SDS011;6676;45.192;5.722;2023-04-29T13:16:23;2.75;;;0.72;;
13222;SDS011;6676;45.192;5.722;2023-04-29T13:19:15;1.85;;;0.80;;
13222;SDS011;6676;45.192;5.722;2023-04-29T13:22:07;1.42;;;0.70;;
13222;SDS011;6676;45.192;5.722;2023-04-29T13:24:59;1.37;;;0.65;;
13222;SDS011;6676;45.192;5.722;2023-04-29T13:27:51;0.47;;;0.40;;
13222;SDS011;6676;45.192;5.722;2023-04-29T13:30:45;1.50;;;0.40;;
13222;SDS011;6676;45.192;5.722;2023-04-29T13:33:38;0.85;;;0.60;;
13222;SDS011;6676;45.192;5.722;2023-04-29T13:36:30;3.10;;;0.62;;
13222;SDS011;6676;45.192;5.722;2023-04-29T13:39:24;0.90;;;0.40;;
13222;SDS011;6676;45.192;5.722;2023-04-29T13:42:16;0.95;;;0.50;;
13222;SDS011;6676;45.192;5.722;2023-04-29T13:45:07;0.40;;;0.40;;
13222;SDS011;6676;45.192;5.722;2023-04-29T13:47:59;0.90;;;0.50;;
13222;SDS011;6676;45.192;5.722;2023-04-29T13:50:52;1.10;;;0.50;;
13222;SDS011;6676;45.192;5.722;2023-04-29T13:53:45;0.93;;;0.30;;
13222;SDS011;6676;45.192;5.722;2023-04-29T13:56:37;0.53;;;0.30;;
13222;SDS011;6676;45.192;5.722;2023-04-29T13:59:24;0.80;;;0.50;;
13222;SDS011;6676;45.192;5.722;2023-04-29T14:02:17;0.50;;;0.50;;
13222;SDS011;6676;45.192;5.722;2023-04-29T14:05:10;0.35;;;0.23;;
13222;SDS011;6676;45.192;5.722;2023-04-29T14:08:01;1.17;;;0.60;;
13222;SDS011;6676;45.192;5.722;2023-04-29T14:10:53;1.27;;;0.60;;
13222;SDS011;6676;45.192;5.722;2023-04-29T14:13:45;0.70;;;0.50;;
13222;SDS011;6676;45.192;5.722;2023-04-29T14:16:37;3.08;;;0.80;;
13222;SDS011;6676;45.192;5.722;2023-04-29T14:19:28;0.40;;;0.40;;
13222;SDS011;6676;45.192;5.722;2023-04-29T14:22:20;0.80;;;0.60;;
13222;SDS011;6676;45.192;5.722;2023-04-29T14:25:01;2.50;;;1.40;;
13222;SDS011;6676;45.192;5.722;2023-04-29T14:27:53;0.82;;;0.60;;
13222;SDS011;6676;45.192;5.722;2023-04-29T14:30:36;0.40;;;0.30;;
13222;SDS011;6676;45.192;5.722;2023-04-29T14:33:28;0.75;;;0.60;;
13222;SDS011;6676;45.192;5.722;2023-04-29T14:36:09;0.70;;;0.50;;
13222;SDS011;6676;45.192;5.722;2023-04-29T14:39:00;1.65;;;0.50;;
13222;SDS011;6676;45.192;5.722;2023-04-29T14:41:41;3.20;;;0.60;;
13222;SDS011;6676;45.192;5.722;2023-04-29T14:44:32;0.80;;;0.60;;
13222;SDS011;6676;45.192;5.722;2023-04-29T14:47:23;1.22;;;0.47;;
13222;SDS011;6676;45.192;5.722;2023-04-29T14:50:20;0.88;;;0.80;;
13222;SDS011;6676;45.192;5.722;2023-04-29T14:53:12;0.68;;;0.45;;
13222;SDS011;6676;45.192;5.722;2023-04-29T14:56:04;0.40;;;0.37;;
13222;SDS011;6676;45.192;5.722;2023-04-29T14:58:56;0.78;;;0.50;;
13222;SDS011;6676;45.192;5.722;2023-04-29T15:01:52;0.42;;;0.30;;
13222;SDS011;6676;45.192;5.722;2023-04-29T15:04:38;0.70;;;0.60;;
13222;SDS011;6676;45.192;5.722;2023-04-29T15:07:31;1.10;;;0.40;;
13222;SDS011;6676;45.192;5.722;2023-04-29T15:10:23;0.88;;;0.50;;
13222;SDS011;6676;45.192;5.722;2023-04-29T15:13:16;0.72;;;0.50;;
13222;SDS011;6676;45.192;5.722;2023-04-29T15:16:07;0.80;;;0.60;;
13222;SDS011;6676;45.192;5.722;2023-04-29T15:18:59;0.60;;;0.55;;
13222;SDS011;6676;45.192;5.722;2023-04-29T15:22:03;1.15;;;0.70;;
13222;SDS011;6676;45.192;5.722;2023-04-29T15:25:04;1.87;;;0.57;;
13222;SDS011;6676;45.192;5.722;2023-04-29T15:27:59;0.93;;;0.70;;
13222;SDS011;6676;45.192;5.722;2023-04-29T15:31:03;1.12;;;0.70;;
13222;SDS011;6676;45.192;5.722;2023-04-29T15:34:01;2.37;;;0.82;;
13222;SDS011;6676;45.192;5.722;2023-04-29T15:39:46;1.00;;;0.70;;
13222;SDS011;6676;45.192;5.722;2023-04-29T15:42:37;0.80;;;0.57;;
13222;SDS011;6676;45.192;5.722;2023-04-29T15:48:07;0.85;;;0.70;;
13222;SDS011;6676;45.192;5.722;2023-04-29T15:50:58;4.10;;;1.05;;
13222;SDS011;6676;45.192;5.722;2023-04-29T15:53:50;0.72;;;0.60;;
13222;SDS011;6676;45.192;5.722;2023-04-29T15:56:41;0.50;;;0.50;;
13222;SDS011;6676;45.192;5.722;2023-04-29T15:59:33;2.15;;;0.78;;
13222;SDS011;6676;45.192;5.722;2023-04-29T16:02:24;0.90;;;0.60;;
13222;SDS011;6676;45.192;5.722;2023-04-29T16:05:16;2.77;;;0.68;;
13222;SDS011;6676;45.192;5.722;2023-04-29T16:08:07;1.50;;;0.70;;
13222;SDS011;6676;45.192;5.722;2023-04-29T16:13:37;1.62;;;0.80;;
13222;SDS011;6676;45.192;5.722;2023-04-29T16:16:29;1.35;;;0.60;;
13222;SDS011;6676;45.192;5.722;2023-04-29T16:19:21;0.82;;;0.60;;
13222;SDS011;6676;45.192;5.722;2023-04-29T16:22:12;4.10;;;0.80;;
13222;SDS011;6676;45.192;5.722;2023-04-29T16:25:04;1.62;;;0.45;;
13222;SDS011;6676;45.192;5.722;2023-04-29T16:27:58;2.30;;;0.60;;
13222;SDS011;6676;45.192;5.722;2023-04-29T16:30:50;1.12;;;0.70;;
13222;SDS011;6676;45.192;5.722;2023-04-29T16:33:42;3.60;;;1.15;;
13222;SDS011;6676;45.192;5.722;2023-04-29T16:36:33;3.17;;;0.90;;
13222;SDS011;6676;45.192;5.722;2023-04-29T16:39:24;1.57;;;0.80;;
13222;SDS011;6676;45.192;5.722;2023-04-29T16:42:16;2.40;;;1.20;;
13222;SDS011;6676;45.192;5.722;2023-04-29T16:45:09;4.53;;;2.40;;
13222;SDS011;6676;45.192;5.722;2023-04-29T16:48:02;6.17;;;2.45;;
13222;SDS011;6676;45.192;5.722;2023-04-29T16:50:54;2.87;;;1.35;;
13222;SDS011;6676;45.192;5.722;2023-04-29T16:53:45;3.47;;;1.27;;
13222;SDS011;6676;45.192;5.722;2023-04-29T16:56:29;4.08;;;1.87;;
13222;SDS011;6676;45.192;5.722;2023-04-29T16:59:20;1.98;;;1.10;;
13222;SDS011;6676;45.192;5.722;2023-04-29T17:02:11;1.82;;;0.90;;
13222;SDS011;6676;45.192;5.722;2023-04-29T17:05:03;2.42;;;1.20;;
13222;SDS011;6676;45.192;5.722;2023-04-29T17:07:56;2.27;;;1.00;;
13222;SDS011;6676;45.192;5.722;2023-04-29T17:10:47;3.42;;;1.62;;
13222;SDS011;6676;45.192;5.722;2023-04-29T17:13:38;3.02;;;1.20;;
13222;SDS011;6676;45.192;5.722;2023-04-29T17:16:31;2.45;;;1.17;;
13222;SDS011;6676;45.192;5.722;2023-04-29T17:19:23;1.55;;;1.30;;
13222;SDS011;6676;45.192;5.722;2023-04-29T17:22:14;1.87;;;1.07;;
13222;SDS011;6676;45.192;5.722;2023-04-29T17:25:08;2.15;;;0.90;;
13222;SDS011;6676;45.192;5.722;2023-04-29T17:28:01;1.95;;;1.10;;
13222;SDS011;6676;45.192;5.722;2023-04-29T17:30:52;1.62;;;0.80;;
13222;SDS011;6676;45.192;5.722;2023-04-29T17:33:45;3.08;;;1.40;;
13222;SDS011;6676;45.192;5.722;2023-04-29T17:36:39;3.33;;;2.02;;
13222;SDS011;6676;45.192;5.722;2023-04-29T17:39:31;3.98;;;1.70;;
13222;SDS011;6676;45.192;5.722;2023-04-29T17:42:22;2.92;;;1.47;;
13222;SDS011;6676;45.192;5.722;2023-04-29T17:45:14;1.17;;;1.00;;
13222;SDS011;6676;45.192;5.722;2023-04-29T17:48:05;2.25;;;1.30;;
13222;SDS011;6676;45.192;5.722;2023-04-29T17:50:57;3.27;;;1.32;;
13222;SDS011;6676;45.192;5.722;2023-04-29T17:53:49;2.30;;;1.20;;
13222;SDS011;6676;45.192;5.722;2023-04-29T17:56:41;1.37;;;0.90;;
13222;SDS011;6676;45.192;5.722;2023-04-29T17:59:33;2.62;;;1.62;;
13222;SDS011;6676;45.192;5.722;2023-04-29T18:02:24;3.50;;;1.50;;
13222;SDS011;6676;45.192;5.722;2023-04-29T18:05:16;1.55;;;1.17;;
13222;SDS011;6676;45.192;5.722;2023-04-29T18:08:08;1.98;;;1.47;;
13222;SDS011;6676;45.192;5.722;2023-04-29T18:11:00;1.92;;;1.47;;
13222;SDS011;6676;45.192;5.722;2023-04-29T18:13:55;4.10;;;1.62;;
13222;SDS011;6676;45.192;5.722;2023-04-29T18:16:47;6.92;;;1.92;;
13222;SDS011;6676;45.192;5.722;2023-04-29T18:19:39;2.75;;;1.40;;
13222;SDS011;6676;45.192;5.722;2023-04-29T18:22:31;2.40;;;1.47;;
13222;SDS011;6676;45.192;5.722;2023-04-29T18:25:22;5.05;;;1.60;;
13222;SDS011;6676;45.192;5.722;2023-04-29T18:28:14;1.52;;;1.17;;
13222;SDS011;6676;45.192;5.722;2023-04-29T18:31:06;4.85;;;1.95;;
13222;SDS011;6676;45.192;5.722;2023-04-29T18:33:58;1.92;;;1.32;;
13222;SDS011;6676;45.192;5.722;2023-04-29T18:36:51;2.98;;;1.62;;
13222;SDS011;6676;45.192;5.722;2023-04-29T18:39:42;4.33;;;1.45;;
13222;SDS011;6676;45.192;5.722;2023-04-29T18:42:33;3.62;;;1.80;;
13222;SDS011;6676;45.192;5.722;2023-04-29T18:45:25;1.87;;;1.17;;
13222;SDS011;6676;45.192;5.722;2023-04-29T18:48:16;2.25;;;1.32;;
13222;SDS011;6676;45.192;5.722;2023-04-29T18:51:07;2.58;;;1.72;;
13222;SDS011;6676;45.192;5.722;2023-04-29T18:53:59;3.05;;;1.50;;
13222;SDS011;6676;45.192;5.722;2023-04-29T18:56:51;3.12;;;1.50;;
13222;SDS011;6676;45.192;5.722;2023-04-29T18:59:42;2.77;;;1.80;;
13222;SDS011;6676;45.192;5.722;2023-04-29T19:02:33;2.77;;;1.70;;
13222;SDS011;6676;45.192;5.722;2023-04-29T19:05:25;2.67;;;1.65;;
13222;SDS011;6676;45.192;5.722;2023-04-29T19:08:17;2.50;;;1.80;;
13222;SDS011;6676;45.192;5.722;2023-04-29T19:11:08;4.62;;;2.27;;
13222;SDS011;6676;45.192;5.722;2023-04-29T19:13:59;3.22;;;1.60;;
13222;SDS011;6676;45.192;5.722;2023-04-29T19:16:51;4.10;;;2.10;;
13222;SDS011;6676;45.192;5.722;2023-04-29T19:19:43;4.92;;;2.05;;
13222;SDS011;6676;45.192;5.722;2023-04-29T19:22:34;3.35;;;2.55;;
13222;SDS011;6676;45.192;5.722;2023-04-29T19:25:26;6.47;;;3.95;;
13222;SDS011;6676;45.192;5.722;2023-04-29T19:28:19;6.95;;;3.45;;
13222;SDS011;6676;45.192;5.722;2023-04-29T19:31:10;4.58;;;3.25;;
13222;SDS011;6676;45.192;5.722;2023-04-29T19:34:02;5.72;;;3.10;;
13222;SDS011;6676;45.192;5.722;2023-04-29T19:36:54;4.58;;;3.17;;
13222;SDS011;6676;45.192;5.722;2023-04-29T19:39:46;3.52;;;2.45;;
13222;SDS011;6676;45.192;5.722;2023-04-29T19:42:38;2.20;;;2.00;;
13222;SDS011;6676;45.192;5.722;2023-04-29T19:45:29;1.55;;;1.05;;
13222;SDS011;6676;45.192;5.722;2023-04-29T19:48:21;2.20;;;2.00;;
13222;SDS011;6676;45.192;5.722;2023-04-29T19:51:13;2.40;;;1.90;;
13222;SDS011;6676;45.192;5.722;2023-04-29T19:54:05;7.53;;;6.40;;
13222;SDS011;6676;45.192;5.722;2023-04-29T19:56:56;2.92;;;2.45;;
13222;SDS011;6676;45.192;5.722;2023-04-29T19:59:48;2.98;;;2.02;;
13222;SDS011;6676;45.192;5.722;2023-04-29T20:02:40;2.98;;;2.00;;
13222;SDS011;6676;45.192;5.722;2023-04-29T20:05:32;2.80;;;2.08;;
13222;SDS011;6676;45.192;5.722;2023-04-29T20:08:23;3.25;;;2.10;;
13222;SDS011;6676;45.192;5.722;2023-04-29T20:11:15;5.72;;;4.92;;
13222;SDS011;6676;45.192;5.722;2023-04-29T20:14:07;5.35;;;4.15;;